sensor_id;sensor_type;location;lat;lon;timestamp;pressure;altitude;pressure_sealevel;temperature;humidity
51313;BME280;37397;53.226;10.400;2023-05-03T00:01:31;102370.78;;;9.56;49.14
51313;BME280;37397;53.226;10.400;2023-05-03T00:03:58;102373.69;;;9.52;49.31
51313;BME280;37397;53.226;10.400;2023-05-03T00:06:24;102374.56;;;9.49;49.31
51313;BME280;37397;53.226;10.400;2023-05-03T00:08:51;102372.16;;;9.47;49.42
51313;BME280;37397;53.226;10.400;2023-05-03T00:11:18;102364.09;;;9.42;49.45
51313;BME280;37397;53.226;10.400;2023-05-03T00:13:44;102363.31;;;9.42;49.52
51313;BME280;37397;53.226;10.400;2023-05-03T00:16:11;102359.28;;;9.39;49.53
51313;BME280;37397;53.226;10.400;2023-05-03T00:18:38;102365.41;;;9.38;49.44
51313;BME280;37397;53.226;10.400;2023-05-03T00:21:04;102365.84;;;9.36;49.48
51313;BME280;37397;53.226;10.400;2023-05-03T00:23:31;102357.81;;;9.31;49.48
51313;BME280;37397;53.226;10.400;2023-05-03T00:25:58;102362.69;;;9.30;49.58
51313;BME280;37397;53.226;10.400;2023-05-03T00:28:25;102361.53;;;9.28;49.53
51313;BME280;37397;53.226;10.400;2023-05-03T00:30:52;102355.47;;;9.26;49.71
51313;BME280;37397;53.226;10.400;2023-05-03T00:33:18;102359.19;;;9.23;49.80
51313;BME280;37397;53.226;10.400;2023-05-03T00:35:45;102361.63;;;9.21;49.78
51313;BME280;37397;53.226;10.400;2023-05-03T00:38:11;102357.19;;;9.20;49.87
51313;BME280;37397;53.226;10.400;2023-05-03T00:40:39;102366.97;;;9.19;49.88
51313;BME280;37397;53.226;10.400;2023-05-03T00:43:06;102367.81;;;9.16;49.91
51313;BME280;37397;53.226;10.400;2023-05-03T00:45:34;102358.13;;;9.13;49.93
51313;BME280;37397;53.226;10.400;2023-05-03T00:48:00;102368.69;;;9.12;50.15
51313;BME280;37397;53.226;10.400;2023-05-03T00:50:28;102361.00;;;9.09;49.93
51313;BME280;37397;53.226;10.400;2023-05-03T00:52:54;102369.63;;;9.06;49.93
51313;BME280;37397;53.226;10.400;2023-05-03T00:55:21;102377.75;;;9.07;50.13
51313;BME280;37397;53.226;10.400;2023-05-03T00:57:48;102370.06;;;9.04;50.13
51313;BME280;37397;53.226;10.400;2023-05-03T01:00:15;102373.75;;;9.01;50.18
51313;BME280;37397;53.226;10.400;2023-05-03T01:02:43;102369.75;;;8.99;50.13
51313;BME280;37397;53.226;10.400;2023-05-03T01:05:09;102366.53;;;8.97;50.34
51313;BME280;37397;53.226;10.400;2023-05-03T01:10:36;102365.00;;;8.92;50.19
51313;BME280;37397;53.226;10.400;2023-05-03T01:16:12;102365.03;;;8.88;50.44
51313;BME280;37397;53.226;10.400;2023-05-03T01:18:43;102369.13;;;8.87;50.16
51313;BME280;37397;53.226;10.400;2023-05-03T01:21:18;102369.16;;;8.84;50.51
51313;BME280;37397;53.226;10.400;2023-05-03T01:26:25;102366.81;;;8.79;50.39
51313;BME280;37397;53.226;10.400;2023-05-03T01:28:53;102375.34;;;8.79;50.57
51313;BME280;37397;53.226;10.400;2023-05-03T01:34:41;102371.00;;;8.70;50.68
51313;BME280;37397;53.226;10.400;2023-05-03T01:37:12;102375.91;;;8.70;50.53
51313;BME280;37397;53.226;10.400;2023-05-03T01:42:15;102388.59;;;8.65;50.65
51313;BME280;37397;53.226;10.400;2023-05-03T01:44:43;102393.47;;;8.65;50.69
51313;BME280;37397;53.226;10.400;2023-05-03T01:47:11;102388.22;;;8.63;50.83
51313;BME280;37397;53.226;10.400;2023-05-03T01:49:40;102386.66;;;8.58;50.93
51313;BME280;37397;53.226;10.400;2023-05-03T01:52:06;102390.72;;;8.57;50.85
51313;BME280;37397;53.226;10.400;2023-05-03T01:54:33;102396.41;;;8.57;50.83
51313;BME280;37397;53.226;10.400;2023-05-03T01:57:00;102387.50;;;8.55;50.89
51313;BME280;37397;53.226;10.400;2023-05-03T01:59:27;102398.09;;;8.55;50.97
51313;BME280;37397;53.226;10.400;2023-05-03T02:01:53;102396.97;;;8.49;50.83
51313;BME280;37397;53.226;10.400;2023-05-03T02:04:20;102395.69;;;8.50;50.91
51313;BME280;37397;53.226;10.400;2023-05-03T02:06:46;102394.97;;;8.46;50.98
51313;BME280;37397;53.226;10.400;2023-05-03T02:09:13;102387.66;;;8.45;51.08
51313;BME280;37397;53.226;10.400;2023-05-03T02:11:39;102390.94;;;8.43;50.93
51313;BME280;37397;53.226;10.400;2023-05-03T02:14:06;102393.38;;;8.41;51.08
51313;BME280;37397;53.226;10.400;2023-05-03T02:16:33;102396.22;;;8.41;51.13
51313;BME280;37397;53.226;10.400;2023-05-03T02:18:59;102396.63;;;8.39;50.99
51313;BME280;37397;53.226;10.400;2023-05-03T02:21:26;102402.81;;;8.34;51.27
51313;BME280;37397;53.226;10.400;2023-05-03T02:23:52;102404.03;;;8.33;51.16
51313;BME280;37397;53.226;10.400;2023-05-03T02:26:20;102409.34;;;8.31;51.25
51313;BME280;37397;53.226;10.400;2023-05-03T02:28:46;102403.25;;;8.33;51.25
51313;BME280;37397;53.226;10.400;2023-05-03T02:31:13;102411.41;;;8.31;51.14
51313;BME280;37397;53.226;10.400;2023-05-03T02:33:41;102405.31;;;8.29;51.22
51313;BME280;37397;53.226;10.400;2023-05-03T02:36:08;102413.91;;;8.25;51.43
51313;BME280;37397;53.226;10.400;2023-05-03T02:38:34;102414.69;;;8.26;51.46
51313;BME280;37397;53.226;10.400;2023-05-03T02:41:01;102414.69;;;8.26;51.47
51313;BME280;37397;53.226;10.400;2023-05-03T02:43:29;102410.69;;;8.23;51.58
51313;BME280;37397;53.226;10.400;2023-05-03T02:45:56;102420.44;;;8.22;51.29
51313;BME280;37397;53.226;10.400;2023-05-03T02:48:25;102417.22;;;8.20;51.49
51313;BME280;37397;53.226;10.400;2023-05-03T02:50:51;102413.19;;;8.17;51.30
51313;BME280;37397;53.226;10.400;2023-05-03T02:53:20;102411.59;;;8.16;51.20
51313;BME280;37397;53.226;10.400;2023-05-03T02:55:47;102412.81;;;8.15;51.45
51313;BME280;37397;53.226;10.400;2023-05-03T02:58:13;102419.72;;;8.14;51.68
51313;BME280;37397;53.226;10.400;2023-05-03T03:00:41;102422.97;;;8.13;51.41
51313;BME280;37397;53.226;10.400;2023-05-03T03:03:08;102418.13;;;8.10;51.73
51313;BME280;37397;53.226;10.400;2023-05-03T03:05:37;102425.88;;;8.09;51.50
51313;BME280;37397;53.226;10.400;2023-05-03T03:08:04;102427.91;;;8.09;51.72
51313;BME280;37397;53.226;10.400;2023-05-03T03:10:30;102418.63;;;8.04;51.48
51313;BME280;37397;53.226;10.400;2023-05-03T03:12:57;102421.09;;;8.02;51.58
51313;BME280;37397;53.226;10.400;2023-05-03T03:15:31;102421.09;;;8.02;51.62
51313;BME280;37397;53.226;10.400;2023-05-03T03:17:57;102419.09;;;7.99;51.75
51313;BME280;37397;53.226;10.400;2023-05-03T03:20:25;102415.88;;;7.97;51.71
51313;BME280;37397;53.226;10.400;2023-05-03T03:22:51;102424.03;;;7.95;51.83
51313;BME280;37397;53.226;10.400;2023-05-03T03:25:18;102426.88;;;7.95;51.67
51313;BME280;37397;53.226;10.400;2023-05-03T03:27:45;102428.09;;;7.94;51.96
51313;BME280;37397;53.226;10.400;2023-05-03T03:30:12;102430.56;;;7.92;51.90
51313;BME280;37397;53.226;10.400;2023-05-03T03:32:51;102427.72;;;7.92;51.91
51313;BME280;37397;53.226;10.400;2023-05-03T03:35:25;102428.56;;;7.89;51.95
51313;BME280;37397;53.226;10.400;2023-05-03T03:37:52;102421.66;;;7.87;51.96
51313;BME280;37397;53.226;10.400;2023-05-03T03:40:20;102428.97;;;7.88;52.03
51313;BME280;37397;53.226;10.400;2023-05-03T03:42:50;102417.25;;;7.82;52.00
51313;BME280;37397;53.226;10.400;2023-05-03T03:45:16;102415.19;;;7.86;52.07
51313;BME280;37397;53.226;10.400;2023-05-03T03:47:43;102412.75;;;7.84;52.09
51313;BME280;37397;53.226;10.400;2023-05-03T03:50:10;102410.38;;;7.79;52.12
51313;BME280;37397;53.226;10.400;2023-05-03T03:52:37;102420.50;;;7.80;51.96
51313;BME280;37397;53.226;10.400;2023-05-03T03:55:04;102428.63;;;7.82;52.09
51313;BME280;37397;53.226;10.400;2023-05-03T03:57:31;102425.78;;;7.82;52.14
51313;BME280;37397;53.226;10.400;2023-05-03T03:59:58;102413.66;;;7.78;52.09
51313;BME280;37397;53.226;10.400;2023-05-03T04:02:26;102416.88;;;7.80;52.30
51313;BME280;37397;53.226;10.400;2023-05-03T04:04:54;102412.81;;;7.77;52.44
51313;BME280;37397;53.226;10.400;2023-05-03T04:07:20;102418.94;;;7.76;52.31
51313;BME280;37397;53.226;10.400;2023-05-03T04:09:48;102416.94;;;7.73;52.44
51313;BME280;37397;53.226;10.400;2023-05-03T04:12:15;102412.03;;;7.77;52.26
51313;BME280;37397;53.226;10.400;2023-05-03T04:14:43;102419.75;;;7.76;52.43
51313;BME280;37397;53.226;10.400;2023-05-03T04:17:10;102420.19;;;7.75;52.40
51313;BME280;37397;53.226;10.400;2023-05-03T04:19:36;102423.41;;;7.77;52.40
51313;BME280;37397;53.226;10.400;2023-05-03T04:22:04;102426.25;;;7.77;52.32
51313;BME280;37397;53.226;10.400;2023-05-03T04:24:31;102419.34;;;7.74;52.62
51313;BME280;37397;53.226;10.400;2023-05-03T04:26:58;102427.47;;;7.76;52.48
51313;BME280;37397;53.226;10.400;2023-05-03T04:29:28;102421.78;;;7.76;52.58
51313;BME280;37397;53.226;10.400;2023-05-03T04:31:55;102431.56;;;7.75;52.69
51313;BME280;37397;53.226;10.400;2023-05-03T04:34:22;102432.34;;;7.75;52.47
51313;BME280;37397;53.226;10.400;2023-05-03T04:36:51;102442.91;;;7.75;52.84
51313;BME280;37397;53.226;10.400;2023-05-03T04:39:18;102438.03;;;7.75;52.73
51313;BME280;37397;53.226;10.400;2023-05-03T04:41:46;102448.59;;;7.75;52.56
51313;BME280;37397;53.226;10.400;2023-05-03T04:44:13;102438.81;;;7.76;52.68
51313;BME280;37397;53.226;10.400;2023-05-03T04:46:41;102440.44;;;7.77;52.85
51313;BME280;37397;53.226;10.400;2023-05-03T04:49:08;102447.75;;;7.78;52.76
51313;BME280;37397;53.226;10.400;2023-05-03T04:51:35;102449.34;;;7.79;52.88
51313;BME280;37397;53.226;10.400;2023-05-03T04:54:02;102442.06;;;7.78;52.62
51313;BME280;37397;53.226;10.400;2023-05-03T04:56:28;102447.34;;;7.79;52.86
51313;BME280;37397;53.226;10.400;2023-05-03T04:59:05;102451.78;;;7.80;52.94
51313;BME280;37397;53.226;10.400;2023-05-03T05:01:32;102462.72;;;7.82;52.82
51313;BME280;37397;53.226;10.400;2023-05-03T05:04:01;102456.63;;;7.83;53.09
51313;BME280;37397;53.226;10.400;2023-05-03T05:06:35;102463.56;;;7.79;52.98
51313;BME280;37397;53.226;10.400;2023-05-03T05:09:01;102463.97;;;7.81;53.08
51313;BME280;37397;53.226;10.400;2023-05-03T05:11:30;102460.72;;;7.82;52.91
51313;BME280;37397;53.226;10.400;2023-05-03T05:13:57;102468.00;;;7.83;53.19
51313;BME280;37397;53.226;10.400;2023-05-03T05:16:23;102472.84;;;7.87;53.19
51313;BME280;37397;53.226;10.400;2023-05-03T05:18:52;102469.56;;;7.88;53.30
51313;BME280;37397;53.226;10.400;2023-05-03T05:21:22;102466.31;;;7.90;53.07
51313;BME280;37397;53.226;10.400;2023-05-03T05:23:48;102470.34;;;7.92;53.29
51313;BME280;37397;53.226;10.400;2023-05-03T05:26:15;102463.81;;;7.95;53.24
51313;BME280;37397;53.226;10.400;2023-05-03T05:28:42;102473.56;;;7.94;53.27
51313;BME280;37397;53.226;10.400;2023-05-03T05:31:08;102467.03;;;7.97;53.43
51313;BME280;37397;53.226;10.400;2023-05-03T05:33:35;102475.94;;;7.99;53.15
51313;BME280;37397;53.226;10.400;2023-05-03T05:36:03;102482.00;;;8.01;53.29
51313;BME280;37397;53.226;10.400;2023-05-03T05:38:31;102475.09;;;8.02;53.22
51313;BME280;37397;53.226;10.400;2023-05-03T05:40:58;102477.09;;;8.06;53.29
51313;BME280;37397;53.226;10.400;2023-05-03T05:43:25;102483.22;;;8.04;53.27
51313;BME280;37397;53.226;10.400;2023-05-03T05:45:53;102488.00;;;8.11;53.55
51313;BME280;37397;53.226;10.400;2023-05-03T05:48:19;102494.06;;;8.13;53.68
51313;BME280;37397;53.226;10.400;2023-05-03T05:50:46;102484.69;;;8.16;53.54
51313;BME280;37397;53.226;10.400;2023-05-03T05:53:13;102483.53;;;8.13;53.47
51313;BME280;37397;53.226;10.400;2023-05-03T05:55:46;102486.28;;;8.20;53.39
51313;BME280;37397;53.226;10.400;2023-05-03T05:58:12;102480.53;;;8.24;53.50
51313;BME280;37397;53.226;10.400;2023-05-03T06:00:45;102476.47;;;8.25;53.73
51313;BME280;37397;53.226;10.400;2023-05-03T06:03:15;102482.53;;;8.27;53.58
51313;BME280;37397;53.226;10.400;2023-05-03T06:05:43;102490.22;;;8.30;53.51
51313;BME280;37397;53.226;10.400;2023-05-03T06:08:10;102490.63;;;8.32;53.42
51313;BME280;37397;53.226;10.400;2023-05-03T06:10:37;102486.53;;;8.33;53.69
51313;BME280;37397;53.226;10.400;2023-05-03T06:13:03;102489.75;;;8.35;53.54
51313;BME280;37397;53.226;10.400;2023-05-03T06:15:31;102495.00;;;8.40;53.67
51313;BME280;37397;53.226;10.400;2023-05-03T06:17:57;102492.16;;;8.40;53.73
51313;BME280;37397;53.226;10.400;2023-05-03T06:20:24;102490.88;;;8.45;53.67
51313;BME280;37397;53.226;10.400;2023-05-03T06:22:52;102496.53;;;8.49;53.79
51313;BME280;37397;53.226;10.400;2023-05-03T06:25:19;102505.44;;;8.51;53.60
51313;BME280;37397;53.226;10.400;2023-05-03T06:27:48;102501.38;;;8.52;53.80
51313;BME280;37397;53.226;10.400;2023-05-03T06:30:16;102504.59;;;8.54;53.61
51313;BME280;37397;53.226;10.400;2023-05-03T06:32:46;102504.13;;;8.59;53.83
51313;BME280;37397;53.226;10.400;2023-05-03T06:35:13;102506.97;;;8.59;53.98
51313;BME280;37397;53.226;10.400;2023-05-03T06:37:41;102513.44;;;8.63;54.07
51313;BME280;37397;53.226;10.400;2023-05-03T06:40:09;102514.19;;;8.67;53.96
51313;BME280;37397;53.226;10.400;2023-05-03T06:42:35;102521.44;;;8.72;53.97
51313;BME280;37397;53.226;10.400;2023-05-03T06:45:25;102526.28;;;8.75;54.21
51313;BME280;37397;53.226;10.400;2023-05-03T06:47:52;102529.50;;;8.77;54.52
51313;BME280;37397;53.226;10.400;2023-05-03T06:50:18;102522.97;;;8.80;54.54
51313;BME280;37397;53.226;10.400;2023-05-03T06:52:45;102533.06;;;8.85;54.71
51313;BME280;37397;53.226;10.400;2023-05-03T06:55:12;102531.78;;;8.89;54.60
51313;BME280;37397;53.226;10.400;2023-05-03T06:57:39;102533.34;;;8.94;54.49
51313;BME280;37397;53.226;10.400;2023-05-03T07:00:07;102528.81;;;8.97;54.43
51313;BME280;37397;53.226;10.400;2023-05-03T07:02:33;102533.25;;;9.01;54.68
51313;BME280;37397;53.226;10.400;2023-05-03T07:05:00;102525.09;;;9.03;54.44
51313;BME280;37397;53.226;10.400;2023-05-03T07:07:27;102531.53;;;9.07;54.31
51313;BME280;37397;53.226;10.400;2023-05-03T07:09:53;102529.88;;;9.10;54.11
51313;BME280;37397;53.226;10.400;2023-05-03T07:12:19;102515.56;;;9.13;54.05
51313;BME280;37397;53.226;10.400;2023-05-03T07:14:46;102524.06;;;9.17;54.09
51313;BME280;37397;53.226;10.400;2023-05-03T07:17:13;102506.53;;;9.19;54.03
51313;BME280;37397;53.226;10.400;2023-05-03T07:19:39;102516.66;;;9.23;54.08
51313;BME280;37397;53.226;10.400;2023-05-03T07:22:06;102506.44;;;9.26;54.24
51313;BME280;37397;53.226;10.400;2023-05-03T07:24:32;102518.16;;;9.31;54.21
51313;BME280;37397;53.226;10.400;2023-05-03T07:26:59;102506.31;;;9.33;54.36
51313;BME280;37397;53.226;10.400;2023-05-03T07:29:25;102514.00;;;9.36;54.33
51313;BME280;37397;53.226;10.400;2023-05-03T07:31:53;102517.97;;;9.42;54.02
51313;BME280;37397;53.226;10.400;2023-05-03T07:34:20;102518.72;;;9.46;54.08
51313;BME280;37397;53.226;10.400;2023-05-03T07:36:46;102510.16;;;9.46;53.96
51313;BME280;37397;53.226;10.400;2023-05-03T07:39:13;102514.56;;;9.51;53.73
51313;BME280;37397;53.226;10.400;2023-05-03T07:41:39;102508.06;;;9.51;53.63
51313;BME280;37397;53.226;10.400;2023-05-03T07:44:06;102517.00;;;9.53;53.47
51313;BME280;37397;53.226;10.400;2023-05-03T07:46:33;102518.53;;;9.57;53.12
51313;BME280;37397;53.226;10.400;2023-05-03T07:49:05;102514.03;;;9.60;52.85
51313;BME280;37397;53.226;10.400;2023-05-03T07:51:36;102514.41;;;9.62;52.77
51313;BME280;37397;53.226;10.400;2023-05-03T07:54:03;102505.84;;;9.62;52.83
51313;BME280;37397;53.226;10.400;2023-05-03T07:56:30;102504.63;;;9.63;52.57
51313;BME280;37397;53.226;10.400;2023-05-03T07:58:56;102513.09;;;9.66;52.73
51313;BME280;37397;53.226;10.400;2023-05-03T08:01:35;102523.66;;;9.70;52.24
51313;BME280;37397;53.226;10.400;2023-05-03T08:04:01;102517.53;;;9.67;52.12
51313;BME280;37397;53.226;10.400;2023-05-03T08:06:29;102510.19;;;9.70;52.05
51313;BME280;37397;53.226;10.400;2023-05-03T08:08:57;102516.66;;;9.74;51.95
51313;BME280;37397;53.226;10.400;2023-05-03T08:11:25;102516.56;;;9.78;52.10
51313;BME280;37397;53.226;10.400;2023-05-03T08:13:52;102519.78;;;9.80;51.99
51313;BME280;37397;53.226;10.400;2023-05-03T08:16:18;102512.94;;;9.77;52.05
51313;BME280;37397;53.226;10.400;2023-05-03T08:18:45;102515.63;;;9.84;52.05
51313;BME280;37397;53.226;10.400;2023-05-03T08:21:12;102516.81;;;9.87;52.11
51313;BME280;37397;53.226;10.400;2023-05-03T08:23:38;102518.84;;;9.86;52.06
51313;BME280;37397;53.226;10.400;2023-05-03T08:26:05;102512.63;;;9.92;51.86
51313;BME280;37397;53.226;10.400;2023-05-03T08:28:34;102517.91;;;9.93;51.65
51313;BME280;37397;53.226;10.400;2023-05-03T08:31:01;102519.97;;;9.93;51.53
51313;BME280;37397;53.226;10.400;2023-05-03T08:33:30;102523.56;;;9.97;51.36
51313;BME280;37397;53.226;10.400;2023-05-03T08:35:56;102528.41;;;10.00;51.21
51313;BME280;37397;53.226;10.400;2023-05-03T08:38:23;102525.91;;;10.02;51.26
51313;BME280;37397;53.226;10.400;2023-05-03T08:40:50;102531.91;;;10.08;51.15
51313;BME280;37397;53.226;10.400;2023-05-03T08:43:19;102532.31;;;10.10;51.02
51313;BME280;37397;53.226;10.400;2023-05-03T08:45:46;102531.44;;;10.13;50.98
51313;BME280;37397;53.226;10.400;2023-05-03T08:48:12;102524.91;;;10.12;51.28
51313;BME280;37397;53.226;10.400;2023-05-03T08:50:39;102520.31;;;10.18;51.27
51313;BME280;37397;53.226;10.400;2023-05-03T08:53:08;102525.13;;;10.21;51.35
51313;BME280;37397;53.226;10.400;2023-05-03T08:55:36;102514.91;;;10.24;51.36
51313;BME280;37397;53.226;10.400;2023-05-03T08:58:05;102523.84;;;10.26;51.21
51313;BME280;37397;53.226;10.400;2023-05-03T09:00:35;102531.94;;;10.28;51.17
51313;BME280;37397;53.226;10.400;2023-05-03T09:03:02;102523.75;;;10.30;51.27
51313;BME280;37397;53.226;10.400;2023-05-03T09:05:30;102530.97;;;10.38;51.09
51313;BME280;37397;53.226;10.400;2023-05-03T09:08:07;102542.28;;;10.42;51.31
51313;BME280;37397;53.226;10.400;2023-05-03T09:10:41;102539.84;;;10.44;50.97
51313;BME280;37397;53.226;10.400;2023-05-03T09:13:09;102539.75;;;10.47;51.01
51313;BME280;37397;53.226;10.400;2023-05-03T09:15:36;102541.72;;;10.50;51.13
51313;BME280;37397;53.226;10.400;2023-05-03T09:18:17;102538.88;;;10.50;50.95
51313;BME280;37397;53.226;10.400;2023-05-03T09:20:46;102537.13;;;10.56;51.04
51313;BME280;37397;53.226;10.400;2023-05-03T09:25:52;102536.97;;;10.64;50.73
51313;BME280;37397;53.226;10.400;2023-05-03T09:28:19;102554.00;;;10.67;50.79
51313;BME280;37397;53.226;10.400;2023-05-03T09:30:47;102547.88;;;10.69;50.77
51313;BME280;37397;53.226;10.400;2023-05-03T09:33:14;102536.00;;;10.70;50.50
51313;BME280;37397;53.226;10.400;2023-05-03T09:36:00;102552.34;;;10.70;50.39
51313;BME280;37397;53.226;10.400;2023-05-03T09:38:29;102549.41;;;10.73;50.20
51313;BME280;37397;53.226;10.400;2023-05-03T09:40:57;102537.94;;;10.77;49.95
51313;BME280;37397;53.226;10.400;2023-05-03T09:43:23;102552.91;;;10.81;50.01
51313;BME280;37397;53.226;10.400;2023-05-03T09:45:50;102552.41;;;10.86;50.02
51313;BME280;37397;53.226;10.400;2023-05-03T09:48:17;102551.16;;;10.87;50.40
51313;BME280;37397;53.226;10.400;2023-05-03T09:50:48;102545.00;;;10.89;50.10
51313;BME280;37397;53.226;10.400;2023-05-03T09:53:15;102556.69;;;10.94;50.00
51313;BME280;37397;53.226;10.400;2023-05-03T09:55:43;102551.72;;;10.99;49.98
51313;BME280;37397;53.226;10.400;2023-05-03T09:58:11;102535.38;;;10.99;50.21
51313;BME280;37397;53.226;10.400;2023-05-03T10:00:39;102534.94;;;11.01;50.20
51313;BME280;37397;53.226;10.400;2023-05-03T10:03:09;102535.22;;;11.06;50.20
51313;BME280;37397;53.226;10.400;2023-05-03T10:05:54;102541.75;;;11.07;50.24
51313;BME280;37397;53.226;10.400;2023-05-03T10:08:32;102534.41;;;11.06;50.12
51313;BME280;37397;53.226;10.400;2023-05-03T10:11:02;102536.31;;;11.12;50.02
51313;BME280;37397;53.226;10.400;2023-05-03T10:13:29;102534.63;;;11.15;49.99
51313;BME280;37397;53.226;10.400;2023-05-03T10:16:07;102539.00;;;11.20;49.94
51313;BME280;37397;53.226;10.400;2023-05-03T10:18:39;102534.91;;;11.21;50.14
51313;BME280;37397;53.226;10.400;2023-05-03T10:21:15;102535.16;;;11.26;50.06
51313;BME280;37397;53.226;10.400;2023-05-03T10:24:09;102533.09;;;11.27;50.08
51313;BME280;37397;53.226;10.400;2023-05-03T10:26:45;102548.56;;;11.29;49.88
51313;BME280;37397;53.226;10.400;2023-05-03T10:32:05;102522.31;;;11.35;49.09
51313;BME280;37397;53.226;10.400;2023-05-03T10:34:59;102523.94;;;11.36;49.41
51313;BME280;37397;53.226;10.400;2023-05-03T10:37:29;102523.84;;;11.39;49.49
51313;BME280;37397;53.226;10.400;2023-05-03T10:39:55;102510.00;;;11.38;49.62
51313;BME280;37397;53.226;10.400;2023-05-03T10:42:24;102504.13;;;11.45;49.67
51313;BME280;37397;53.226;10.400;2023-05-03T10:44:54;102511.41;;;11.46;49.63
51313;BME280;37397;53.226;10.400;2023-05-03T10:47:22;102513.28;;;11.53;49.82
51313;BME280;37397;53.226;10.400;2023-05-03T10:52:46;102500.50;;;11.57;49.50
51313;BME280;37397;53.226;10.400;2023-05-03T10:55:16;102512.25;;;11.63;49.61
51313;BME280;37397;53.226;10.400;2023-05-03T10:57:44;102506.41;;;11.66;49.73
51313;BME280;37397;53.226;10.400;2023-05-03T11:00:14;102506.75;;;11.68;49.43
51313;BME280;37397;53.226;10.400;2023-05-03T11:05:25;102499.25;;;11.75;48.77
51313;BME280;37397;53.226;10.400;2023-05-03T11:08:16;102493.63;;;11.71;48.03
51313;BME280;37397;53.226;10.400;2023-05-03T11:10:44;102504.88;;;11.78;48.47
51313;BME280;37397;53.226;10.400;2023-05-03T11:13:12;102500.69;;;11.83;48.29
51313;BME280;37397;53.226;10.400;2023-05-03T11:15:39;102499.88;;;11.82;48.05
51313;BME280;37397;53.226;10.400;2023-05-03T11:18:07;102506.31;;;11.86;48.22
51313;BME280;37397;53.226;10.400;2023-05-03T11:20:35;102505.84;;;11.88;48.30
51313;BME280;37397;53.226;10.400;2023-05-03T11:23:03;102504.59;;;11.89;48.32
51313;BME280;37397;53.226;10.400;2023-05-03T11:25:30;102498.00;;;11.92;48.44
51313;BME280;37397;53.226;10.400;2023-05-03T11:27:59;102498.00;;;11.92;48.80
51313;BME280;37397;53.226;10.400;2023-05-03T11:30:28;102487.78;;;11.91;48.46
51313;BME280;37397;53.226;10.400;2023-05-03T11:32:55;102490.59;;;11.95;48.41
51313;BME280;37397;53.226;10.400;2023-05-03T11:35:22;102477.09;;;11.95;48.29
51313;BME280;37397;53.226;10.400;2023-05-03T11:37:51;102494.59;;;11.97;48.37
51313;BME280;37397;53.226;10.400;2023-05-03T11:40:19;102490.50;;;11.98;48.42
51313;BME280;37397;53.226;10.400;2023-05-03T11:42:54;102487.97;;;12.00;48.15
51313;BME280;37397;53.226;10.400;2023-05-03T11:45:28;102483.06;;;12.01;48.38
51313;BME280;37397;53.226;10.400;2023-05-03T11:47:55;102485.47;;;12.02;48.46
51313;BME280;37397;53.226;10.400;2023-05-03T11:50:27;102494.41;;;12.04;48.15
51313;BME280;37397;53.226;10.400;2023-05-03T11:53:08;102491.09;;;12.06;48.29
51313;BME280;37397;53.226;10.400;2023-05-03T11:55:38;102492.25;;;12.09;48.04
51313;BME280;37397;53.226;10.400;2023-05-03T11:58:07;102481.19;;;12.11;48.11
51313;BME280;37397;53.226;10.400;2023-05-03T12:00:35;102476.25;;;12.11;48.01
51313;BME280;37397;53.226;10.400;2023-05-03T12:03:01;102482.41;;;12.10;47.68
51313;BME280;37397;53.226;10.400;2023-05-03T12:05:28;102485.97;;;12.14;47.40
51313;BME280;37397;53.226;10.400;2023-05-03T12:07:56;102490.78;;;12.17;47.42
51313;BME280;37397;53.226;10.400;2023-05-03T12:10:30;102488.38;;;12.15;47.46
51313;BME280;37397;53.226;10.400;2023-05-03T12:12:58;102488.28;;;12.19;47.65
51313;BME280;37397;53.226;10.400;2023-05-03T12:15:34;102482.91;;;12.21;47.76
51313;BME280;37397;53.226;10.400;2023-05-03T12:18:05;102488.19;;;12.22;47.74
51313;BME280;37397;53.226;10.400;2023-05-03T12:20:36;102473.44;;;12.24;47.77
51313;BME280;37397;53.226;10.400;2023-05-03T12:23:07;102473.44;;;12.24;47.74
51313;BME280;37397;53.226;10.400;2023-05-03T12:25:36;102468.38;;;12.28;47.99
51313;BME280;37397;53.226;10.400;2023-05-03T12:28:05;102474.13;;;12.28;47.93
51313;BME280;37397;53.226;10.400;2023-05-03T12:30:46;102463.47;;;12.29;47.98
51313;BME280;37397;53.226;10.400;2023-05-03T12:33:12;102471.16;;;12.32;47.97
51313;BME280;37397;53.226;10.400;2023-05-03T12:35:42;102462.59;;;12.32;47.82
51313;BME280;37397;53.226;10.400;2023-05-03T12:38:12;102458.00;;;12.34;47.65
51313;BME280;37397;53.226;10.400;2023-05-03T12:40:42;102460.41;;;12.36;47.91
51313;BME280;37397;53.226;10.400;2023-05-03T12:43:10;102457.53;;;12.36;47.84
51313;BME280;37397;53.226;10.400;2023-05-03T12:45:37;102445.97;;;12.39;47.85
51313;BME280;37397;53.226;10.400;2023-05-03T12:48:06;102448.84;;;12.39;47.73
51313;BME280;37397;53.226;10.400;2023-05-03T12:50:34;102450.78;;;12.43;47.82
51313;BME280;37397;53.226;10.400;2023-05-03T12:53:04;102449.19;;;12.42;47.71
51313;BME280;37397;53.226;10.400;2023-05-03T12:55:36;102446.56;;;12.47;47.39
51313;BME280;37397;53.226;10.400;2023-05-03T12:58:09;102439.25;;;12.46;47.75
51313;BME280;37397;53.226;10.400;2023-05-03T13:00:38;102426.84;;;12.49;47.62
51313;BME280;37397;53.226;10.400;2023-05-03T13:03:24;102423.53;;;12.51;47.65
51313;BME280;37397;53.226;10.400;2023-05-03T13:05:58;102417.81;;;12.51;47.70
51313;BME280;37397;53.226;10.400;2023-05-03T13:08:26;102417.47;;;12.49;47.61
51313;BME280;37397;53.226;10.400;2023-05-03T13:11:00;102429.97;;;12.55;47.96
51313;BME280;37397;53.226;10.400;2023-05-03T13:13:27;102421.72;;;12.57;47.84
51313;BME280;37397;53.226;10.400;2023-05-03T13:15:53;102418.53;;;12.55;47.85
51313;BME280;37397;53.226;10.400;2023-05-03T13:18:20;102417.94;;;12.60;47.78